Rio de Janeiro, Brazil
Current Conditions -  °F | °C
As of 8:00 PM on Friday 31 Oct 2014 (Local Time) from SBRJ Reporting Station
Thunderstorm Thunderstorm  
Wind Chill: 81°   Ceiling: Unl
Heat Index: 86°   Visibility: 5mi
Dew Point: 75°   Wind: 5mph
Humidity: 84%   Direction: 240°WSW
Pressure: 29.85"   Gusts: NA
Location:  22.91°S, 43.2°W
Report Text: SBRJ 312200Z 24004KT 8000 TS FEW030CB SCT040 27/24 Q1011
Loading
Personal Weather Stations






























Interactive Weather Map
Tropical Storm Tracking
New forecast layout! Learn more

10-Day Weather Forecast

Advertisements
Track Severe Weather on mobile